Terminal Aerodrome Forecast
Issued by NWS

Home | Current Version | Previous Version | Text Only | Print | Product List | Glossary On
Versions: 1 2 3 4 5 6 7 8 9 10 11 12 13 14 15 16 17 18 19 20 21 22 23 24 25 26 27 28 29 30 31 32
000
FTAK31 PANC 262328
TAFACD
TAF
PACD 262328Z 2700/2724 14015KT P6SM FEW030 SCT120 BKN200
     FM271200 24015KT 3SM -SHSN SCT008 OVC015
     FM271400 26012KT 2SM -SN SCT005 OVC009
     FM272000 35016G26KT P6SM VCSH SCT015 BKN060=

USA.gov is the U.S. government's official web portal to all federal, state and local government web resources and services.